Impacts TAF Board
For situational awareness. Not to be used for flight planning purposes.
IDs:

KSAN - San Diego Intl Arpt, CA, US

Issued at 2320 UTC 23 May 2019
Updated at 0047 UTC 24 May 2019
Potential Impact None Slight Moderate High
Time2351Z 24/01Z 24/02Z 24/03Z 24/04Z 24/05Z 24/06Z 24/07Z 24/08Z 24/09Z 24/10Z 24/11Z 24/12Z 24/13Z>>
Type OBS PRVL PRVL PRVL PRVL PRVL PRVL PRVL PRVL PRVL PRVL PRVL PRVL PRVL
VIS 10 >6 >6 >6 >6 >6 >6 >6 >6 >6 >6 >6 >6 >6
CIG -- 60 35 35 35 35 35 35 35 35 35 30 30 30
Cover SCT BKN BKN BKN BKN BKN BKN BKN BKN BKN BKN BKN BKN BKN
FltCat VFR VFR VFR VFR VFR VFR VFR VFR VFR VFR VFR MVFR MVFR MVFR
WX -- -- -- -- -- -- -- -- -- -- -- -- -- --
WDir 230 230 VRB VRB VRB VRB VRB VRB VRB VRB VRB VRB VRB VRB
WSpd 8 10 4 4 4 4 4 4 4 4 4 3 3 3
WGst -- -- -- -- -- -- -- -- -- -- -- -- -- --
Raw TAF
KSAN 232320Z 2400/2506 23010KT P6SM SCT030 BKN060
  FM240200 VRB04KT P6SM SCT020 BKN035
  FM241100 VRB03KT P6SM BKN030
  FM242000 29010KT P6SM SCT030
  FM250300 VRB05KT P6SM SCT030


Raw METAR
KSAN 232351Z 23008KT 10SM FEW029 FEW038 SCT060 19/09 A3002 RMK AO2 SLP164 T01890094 10189 20167 58008
KSAN 232251Z 22009KT 10SM FEW027 FEW038 SCT060 18/10 A3003 RMK AO2 SLP167 T01830100
KSAN 232151Z 23007KT 10SM FEW027 SCT038 BKN060 18/11 A3004 RMK AO2 SLP172 T01830106

METAR Board
Radar Display
Forecast Discussion
For situational awareness. Not to be used for flight planning purposes.